createdAt,value
2019-02-08T00:00:40.001Z,97671.69
2019-02-08T00:03:09.506Z,97667.67
2019-02-08T00:05:38.990Z,97668.87
2019-02-08T00:08:08.478Z,97669.44
2019-02-08T00:10:38.331Z,97667.88
2019-02-08T00:13:07.807Z,97671.77
2019-02-08T00:15:37.281Z,97674.05
2019-02-08T00:18:06.782Z,97679.33
2019-02-08T00:20:36.252Z,97679.48
2019-02-08T00:23:05.826Z,97682.62
2019-02-08T00:25:35.336Z,97677.41
2019-02-08T00:28:04.896Z,97681.12
2019-02-08T00:30:34.369Z,97684.78
2019-02-08T00:33:03.972Z,97680.69
2019-02-08T00:35:33.480Z,97683.28
2019-02-08T00:38:02.943Z,97676.39
2019-02-08T00:40:32.441Z,97676.59
2019-02-08T00:43:01.903Z,97671.47
2019-02-08T00:45:31.401Z,97672.39
2019-02-08T00:48:00.904Z,97667.50
2019-02-08T00:50:33.178Z,97669.46
2019-02-08T00:53:02.646Z,97669.70
2019-02-08T00:55:32.153Z,97667.02
2019-02-08T00:58:01.912Z,97679.07
2019-02-08T01:00:31.377Z,97677.36
2019-02-08T01:03:00.870Z,97679.88
2019-02-08T01:05:30.342Z,97683.84
2019-02-08T01:07:59.844Z,97690.29
2019-02-08T01:10:32.602Z,97694.13
2019-02-08T01:13:03.065Z,97696.09
2019-02-08T01:15:33.557Z,97694.36
2019-02-08T01:18:03.045Z,97690.67
2019-02-08T01:20:32.576Z,97696.25
2019-02-08T01:23:02.053Z,97695.17
2019-02-08T01:25:32.118Z,97698.17
2019-02-08T01:28:01.621Z,97695.97
2019-02-08T01:30:35.444Z,97696.36
2019-02-08T01:33:04.937Z,97699.24
2019-02-08T01:35:34.433Z,97699.72
2019-02-08T01:38:03.905Z,97694.03
2019-02-08T01:40:38.797Z,97692.30
2019-02-08T01:43:09.086Z,97690.98
2019-02-08T01:45:38.494Z,97689.78
2019-02-08T01:48:08.706Z,97693.05
2019-02-08T01:50:38.198Z,97703.14
2019-02-08T01:53:07.782Z,97702.50
2019-02-08T01:55:37.274Z,97692.61
2019-02-08T01:58:06.755Z,97701.61
2019-02-08T02:00:42.744Z,97700.84
2019-02-08T02:03:12.227Z,97703.16
2019-02-08T02:05:41.695Z,97700.34
2019-02-08T02:08:11.200Z,97695.16
2019-02-08T02:10:44.067Z,97691.06
2019-02-08T02:13:13.587Z,97699.77
2019-02-08T02:15:43.158Z,97705.09
2019-02-08T02:18:12.724Z,97708.62
2019-02-08T02:20:44.101Z,97708.45
2019-02-08T02:23:16.010Z,97709.29
2019-02-08T02:25:45.589Z,97707.88
2019-02-08T02:28:15.064Z,97715.88
2019-02-08T02:30:44.563Z,97711.20
2019-02-08T02:33:14.933Z,97699.48
2019-02-08T02:35:44.409Z,97700.84
2019-02-08T02:38:13.971Z,97702.47
2019-02-08T02:40:43.442Z,97710.12
2019-02-08T02:43:12.982Z,97702.73
2019-02-08T02:45:42.385Z,97701.64
2019-02-08T02:48:13.299Z,97707.66
2019-02-08T02:50:42.787Z,97708.78
2019-02-08T02:53:12.294Z,97712.33
2019-02-08T02:55:41.788Z,97716.69
2019-02-08T02:58:11.266Z,97724.02
2019-02-08T03:00:46.959Z,97723.31
2019-02-08T03:03:16.651Z,97730.34
2019-02-08T03:05:46.141Z,97720.11
2019-02-08T03:08:15.921Z,97734.19
2019-02-08T03:10:45.385Z,97735.67
2019-02-08T03:13:14.893Z,97733.74
2019-02-08T03:15:44.371Z,97735.31
2019-02-08T03:18:13.852Z,97731.31
2019-02-08T03:20:43.365Z,97734.90
2019-02-08T03:23:12.856Z,97737.43
2019-02-08T03:25:42.327Z,97738.33
2019-02-08T03:28:11.832Z,97734.03
2019-02-08T03:30:51.976Z,97729.19
2019-02-08T03:33:21.832Z,97725.00
2019-02-08T03:35:51.381Z,97729.64
2019-02-08T03:38:20.841Z,97736.08
2019-02-08T03:40:50.347Z,97737.55
2019-02-08T03:43:19.837Z,97740.41
2019-02-08T03:45:50.897Z,97744.79
2019-02-08T03:48:20.428Z,97743.83
2019-02-08T03:50:49.910Z,97748.77
2019-02-08T03:53:19.379Z,97753.44
2019-02-08T03:55:52.680Z,97756.38
2019-02-08T03:58:20.081Z,97757.38
2019-02-08T04:00:57.039Z,97758.66
2019-02-08T04:03:26.514Z,97758.05
2019-02-08T04:05:56.032Z,97757.69
2019-02-08T04:08:25.514Z,97751.48
2019-02-08T04:10:54.994Z,97751.83
2019-02-08T04:13:24.478Z,97755.64
2019-02-08T04:15:53.974Z,97762.37
2019-02-08T04:18:23.449Z,97764.93
2019-02-08T04:20:52.948Z,97769.92
2019-02-08T04:23:22.423Z,97774.70
2019-02-08T04:25:51.902Z,97773.55
2019-02-08T04:28:21.381Z,97770.28
2019-02-08T04:30:50.933Z,97768.48
2019-02-08T04:33:20.397Z,97769.19
2019-02-08T04:35:49.932Z,97767.81
2019-02-08T04:38:19.453Z,97773.55
2019-02-08T04:40:48.973Z,97779.23
2019-02-08T04:43:18.457Z,97783.14
2019-02-08T04:45:47.960Z,97786.16
2019-02-08T04:48:17.441Z,97776.03
2019-02-08T04:50:46.953Z,97780.54
2019-02-08T04:53:16.423Z,97775.70
2019-02-08T04:55:45.925Z,97774.70
2019-02-08T04:58:15.427Z,97783.84
2019-02-08T05:00:44.902Z,97792.84
2019-02-08T05:03:14.361Z,97795.85
2019-02-08T05:05:43.857Z,97802.00
2019-02-08T05:08:13.359Z,97802.97
2019-02-08T05:10:42.733Z,97798.48
2019-02-08T05:13:12.233Z,97798.22
2019-02-08T05:15:41.716Z,97798.77
2019-02-08T05:18:11.218Z,97801.52
2019-02-08T05:20:40.734Z,97807.90
2019-02-08T05:23:10.218Z,97808.28
2019-02-08T05:25:39.785Z,97815.30
2019-02-08T05:28:09.285Z,97816.58
2019-02-08T05:30:38.805Z,97820.42
2019-02-08T05:33:08.293Z,97824.08
2019-02-08T05:35:37.775Z,97820.87
2019-02-08T05:38:07.298Z,97818.86
2019-02-08T05:40:36.776Z,97821.26
2019-02-08T05:43:07.853Z,97816.77
2019-02-08T05:45:37.323Z,97814.21
2019-02-08T05:48:06.825Z,97820.49
2019-02-08T05:50:36.292Z,97820.30
2019-02-08T05:53:05.764Z,97821.84
2019-02-08T05:55:35.292Z,97827.73
2019-02-08T05:58:05.263Z,97825.94
2019-02-08T06:00:42.983Z,97831.03
2019-02-08T06:03:12.472Z,97826.48
2019-02-08T06:05:42.540Z,97826.25
2019-02-08T06:08:12.039Z,97835.63
2019-02-08T06:10:41.523Z,97840.53
2019-02-08T06:13:11.007Z,97842.74
2019-02-08T06:15:40.710Z,97844.03
2019-02-08T06:18:11.321Z,97847.67
2019-02-08T06:20:40.980Z,97850.76
2019-02-08T06:23:10.607Z,97853.06
2019-02-08T06:25:40.066Z,97859.56
2019-02-08T06:28:09.655Z,97862.53
2019-02-08T06:30:39.553Z,97870.07
2019-02-08T06:33:09.029Z,97873.53
2019-02-08T06:35:38.550Z,97878.18
2019-02-08T06:38:08.121Z,97883.95
2019-02-08T06:40:44.098Z,97885.64
2019-02-08T06:43:13.640Z,97890.06
2019-02-08T06:45:43.108Z,97892.94
2019-02-08T06:48:12.984Z,97891.30
2019-02-08T06:50:42.592Z,97892.55
2019-02-08T06:53:12.076Z,97887.88
2019-02-08T06:55:41.532Z,97888.90
2019-02-08T06:58:28.030Z,97883.97
2019-02-08T07:01:17.077Z,97891.88
2019-02-08T07:03:51.160Z,97906.45
2019-02-08T07:06:22.202Z,97907.66
2019-02-08T07:09:05.640Z,97906.70
2019-02-08T07:11:36.710Z,97910.23
2019-02-08T07:14:17.417Z,97911.56
2019-02-08T07:16:51.395Z,97922.02
2019-02-08T07:19:22.470Z,97917.89
2019-02-08T07:22:02.712Z,97918.17
2019-02-08T07:24:36.719Z,97916.36
2019-02-08T07:27:16.739Z,97923.10
2019-02-08T07:29:59.687Z,97939.23
2019-02-08T07:32:36.596Z,97940.64
2019-02-08T07:35:26.993Z,97939.48
2019-02-08T07:38:00.789Z,97944.14
2019-02-08T07:40:42.291Z,97948.72
2019-02-08T07:43:22.559Z,97957.78
2019-02-08T07:45:59.873Z,97955.77
2019-02-08T07:48:30.935Z,97960.67
2019-02-08T07:51:16.935Z,97961.47
2019-02-08T07:54:04.054Z,97971.75
2019-02-08T07:56:47.445Z,97970.50
2019-02-08T07:59:24.229Z,97965.42
2019-02-08T08:02:03.874Z,97968.34
2019-02-08T08:04:43.814Z,97972.92
2019-02-08T08:07:18.055Z,97976.59
2019-02-08T08:10:04.356Z,97968.35
2019-02-08T08:12:35.440Z,97976.98
2019-02-08T08:15:09.899Z,97981.20
2019-02-08T08:17:50.055Z,97983.80
2019-02-08T08:20:32.298Z,97985.91
2019-02-08T08:23:06.362Z,97980.80
2019-02-08T08:25:43.179Z,97983.56
2019-02-08T08:28:14.255Z,97986.98
2019-02-08T08:30:57.430Z,97988.67
2019-02-08T08:33:34.390Z,97995.22
2019-02-08T08:36:17.757Z,97989.76
2019-02-08T08:39:22.393Z,97993.96
2019-02-08T08:42:17.850Z,97998.82
2019-02-08T08:45:23.985Z,98004.63
2019-02-08T08:48:19.301Z,97999.22
2019-02-08T08:50:58.975Z,98003.70
2019-02-08T08:53:47.797Z,98008.64
2019-02-08T08:56:59.689Z,98014.21
2019-02-08T08:59:50.175Z,98018.76
2019-02-08T09:02:48.215Z,98008.93
2019-02-08T09:05:37.177Z,98009.47
2019-02-08T09:08:48.506Z,98015.70
2019-02-08T09:11:34.320Z,98022.89
2019-02-08T09:14:40.239Z,98016.67
2019-02-08T09:17:43.033Z,98019.67
2019-02-08T09:20:59.509Z,98025.13
2019-02-08T09:23:56.244Z,98029.79
2019-02-08T09:26:52.581Z,98025.63
2019-02-08T09:29:50.603Z,98024.19
2019-02-08T09:32:54.812Z,98030.54
2019-02-08T09:35:51.340Z,98037.65
2019-02-08T09:38:55.670Z,98031.66
2019-02-08T09:42:15.396Z,98027.97
2019-02-08T09:45:15.000Z,98027.84
2019-02-08T09:48:01.349Z,98027.20
2019-02-08T09:50:44.282Z,98032.34
2019-02-08T09:54:07.068Z,98034.80
2019-02-08T09:56:52.759Z,98028.52
2019-02-08T09:59:59.856Z,98027.48
2019-02-08T10:02:53.483Z,98022.19
2019-02-08T10:06:06.891Z,98022.59
2019-02-08T10:09:09.615Z,98022.98
2019-02-08T10:12:07.694Z,98024.16
2019-02-08T10:15:24.229Z,98016.92
2019-02-08T10:18:10.458Z,98012.63
2019-02-08T10:21:20.786Z,98010.58
2019-02-08T10:24:09.195Z,98008.19
2019-02-08T10:27:19.440Z,98009.90
2019-02-08T10:30:26.659Z,98004.68
2019-02-08T10:33:32.429Z,97999.84
2019-02-08T10:36:38.259Z,97998.17
2019-02-08T10:40:04.056Z,98002.60
2019-02-08T10:43:12.881Z,98001.50
2019-02-08T10:46:17.067Z,97998.13
2019-02-08T10:49:03.131Z,98004.94
2019-02-08T10:52:15.252Z,97998.92
2019-02-08T10:55:16.386Z,98000.12
2019-02-08T10:58:28.307Z,98003.87
2019-02-08T11:01:29.748Z,97991.95
2019-02-08T11:04:40.411Z,97992.56
2019-02-08T11:08:01.825Z,97986.42
2019-02-08T11:11:00.310Z,97979.92
2019-02-08T11:13:52.285Z,97986.39
2019-02-08T11:17:18.033Z,97984.42
2019-02-08T11:19:47.910Z,97995.84
2019-02-08T11:22:17.408Z,97994.48
2019-02-08T11:24:46.960Z,97995.09
2019-02-08T11:27:16.460Z,97997.56
2019-02-08T11:29:45.946Z,97995.42
2019-02-08T11:32:15.679Z,97987.51
2019-02-08T11:34:45.302Z,97991.34
2019-02-08T11:37:14.800Z,97993.20
2019-02-08T11:39:44.322Z,97996.03
2019-02-08T11:42:13.821Z,97989.34
2019-02-08T11:44:43.307Z,97986.17
2019-02-08T11:47:12.827Z,97984.10
2019-02-08T11:49:42.313Z,97989.90
2019-02-08T11:52:11.794Z,97977.62
2019-02-08T11:54:41.298Z,97981.51
2019-02-08T11:57:10.770Z,97976.34
2019-02-08T11:59:40.247Z,97974.09
2019-02-08T12:02:09.756Z,97980.53
2019-02-08T12:04:39.647Z,97978.97
2019-02-08T12:07:09.055Z,97973.71
2019-02-08T12:09:39.115Z,97967.47
2019-02-08T12:12:08.593Z,97960.86
2019-02-08T12:14:38.095Z,97958.27
2019-02-08T12:17:07.664Z,97951.87
2019-02-08T12:19:37.164Z,97946.56
2019-02-08T12:22:06.666Z,97951.31
2019-02-08T12:24:36.146Z,97942.35
2019-02-08T12:27:05.620Z,97942.95
2019-02-08T12:29:35.231Z,97938.85
2019-02-08T12:32:04.699Z,97935.24
2019-02-08T12:34:34.210Z,97935.89
2019-02-08T12:37:03.749Z,97933.55
2019-02-08T12:39:33.220Z,97931.47
2019-02-08T12:42:03.319Z,97926.80
2019-02-08T12:44:32.913Z,97931.87
2019-02-08T12:47:02.408Z,97925.08
2019-02-08T12:49:31.872Z,97912.53
2019-02-08T12:52:01.498Z,97908.70
2019-02-08T12:54:31.006Z,97904.92
2019-02-08T12:57:00.484Z,97904.65
2019-02-08T12:59:29.987Z,97903.56
2019-02-08T13:01:59.515Z,97900.08
2019-02-08T13:04:29.027Z,97897.20
2019-02-08T13:06:58.505Z,97893.36
2019-02-08T13:09:27.994Z,97890.47
2019-02-08T13:11:57.508Z,97892.73
2019-02-08T13:14:26.991Z,97888.80
2019-02-08T13:16:56.590Z,97893.05
2019-02-08T13:19:26.093Z,97890.31
2019-02-08T13:21:55.577Z,97885.78
2019-02-08T13:24:25.066Z,97889.14
2019-02-08T13:26:54.587Z,97885.88
2019-02-08T13:29:24.056Z,97894.08
2019-02-08T13:31:53.556Z,97877.81
2019-02-08T13:34:23.061Z,97890.42
2019-02-08T13:36:52.549Z,97883.62
2019-02-08T13:39:25.843Z,97884.58
2019-02-08T13:41:55.438Z,97883.02
2019-02-08T13:44:25.051Z,97880.17
2019-02-08T13:46:54.516Z,97877.89
2019-02-08T13:49:24.108Z,97879.26
2019-02-08T13:51:56.124Z,97886.20
2019-02-08T13:54:25.664Z,97876.55
2019-02-08T13:57:00.498Z,97877.96
2019-02-08T13:59:26.400Z,97874.09
2019-02-08T14:01:56.290Z,97878.41
2019-02-08T14:04:25.994Z,97876.52
2019-02-08T14:06:55.872Z,97877.41
2019-02-08T14:09:25.439Z,97877.32
2019-02-08T14:11:55.057Z,97879.88
2019-02-08T14:14:24.594Z,97874.32
2019-02-08T14:16:54.091Z,97872.91
2019-02-08T14:19:23.671Z,97870.73
2019-02-08T14:21:53.147Z,97870.78
2019-02-08T14:24:22.692Z,97874.55
2019-02-08T14:26:52.200Z,97871.33
2019-02-08T14:29:21.725Z,97863.40
2019-02-08T14:31:51.248Z,97866.44
2019-02-08T14:34:21.504Z,97860.84
2019-02-08T14:36:51.020Z,97860.58
2019-02-08T14:39:20.589Z,97855.55
2019-02-08T14:41:50.066Z,97857.63
2019-02-08T14:44:19.573Z,97852.72
2019-02-08T14:46:49.095Z,97851.58
2019-02-08T14:49:18.587Z,97854.39
2019-02-08T14:51:48.090Z,97846.63
2019-02-08T14:54:17.569Z,97846.36
2019-02-08T14:56:47.051Z,97841.81
2019-02-08T14:59:16.569Z,97837.49
2019-02-08T15:01:46.083Z,97839.27
2019-02-08T15:04:15.599Z,97833.89
2019-02-08T15:06:45.175Z,97834.38
2019-02-08T15:09:14.653Z,97831.55
2019-02-08T15:11:44.123Z,97828.67
2019-02-08T15:14:13.627Z,97827.48
2019-02-08T15:16:43.022Z,97827.00
2019-02-08T15:19:12.517Z,97823.09
2019-02-08T15:21:41.954Z,97822.30
2019-02-08T15:24:11.438Z,97821.77
2019-02-08T15:26:40.911Z,97822.90
2019-02-08T15:29:10.589Z,97818.05
2019-02-08T15:31:40.072Z,97815.63
2019-02-08T15:34:09.568Z,97806.33
2019-02-08T15:36:39.992Z,97803.00
2019-02-08T15:39:10.530Z,97799.67
2019-02-08T15:41:40.015Z,97799.10
2019-02-08T15:44:09.519Z,97803.22
2019-02-08T15:46:39.292Z,97815.25
2019-02-08T15:49:08.867Z,97825.08
2019-02-08T15:51:38.452Z,97817.92
2019-02-08T15:54:07.924Z,97827.06
2019-02-08T15:56:37.926Z,97820.30
2019-02-08T15:59:07.634Z,97823.91
2019-02-08T16:01:37.213Z,97827.28
2019-02-08T16:04:06.716Z,97826.91
2019-02-08T16:06:36.265Z,97830.92
2019-02-08T16:09:09.857Z,97839.23
2019-02-08T16:11:39.470Z,97839.38
2019-02-08T16:14:08.966Z,97847.02
2019-02-08T16:16:38.761Z,97851.03
2019-02-08T16:19:08.276Z,97841.22
2019-02-08T16:21:37.784Z,97843.54
2019-02-08T16:24:07.244Z,97847.52
2019-02-08T16:26:36.747Z,97855.08
2019-02-08T16:29:06.343Z,97860.56
2019-02-08T16:31:35.810Z,97841.06
2019-02-08T16:34:05.370Z,97861.05
2019-02-08T16:36:34.946Z,97861.34
2019-02-08T16:39:07.677Z,97857.41
2019-02-08T16:41:37.151Z,97857.22
2019-02-08T16:44:06.764Z,97858.56
2019-02-08T16:46:36.262Z,97858.50
2019-02-08T16:49:05.795Z,97856.30
2019-02-08T16:51:35.305Z,97850.59
2019-02-08T16:54:05.187Z,97850.02
2019-02-08T16:56:34.753Z,97852.66
2019-02-08T16:59:04.268Z,97849.00
2019-02-08T17:01:33.779Z,97849.95
2019-02-08T17:04:03.281Z,97848.70
2019-02-08T17:06:32.822Z,97854.16
2019-02-08T17:09:02.297Z,97861.86
2019-02-08T17:11:31.822Z,97859.47
2019-02-08T17:14:01.477Z,97858.19
2019-02-08T17:16:31.197Z,97864.93
2019-02-08T17:19:00.679Z,97860.73
2019-02-08T17:21:30.260Z,97864.92
2019-02-08T17:23:59.762Z,97864.56
2019-02-08T17:26:29.219Z,97861.53
2019-02-08T17:28:58.984Z,97868.29
2019-02-08T17:31:28.515Z,97864.53
2019-02-08T17:33:58.196Z,97865.91
2019-02-08T17:36:27.693Z,97865.26
2019-02-08T17:38:57.181Z,97867.30
2019-02-08T17:41:26.631Z,97867.48
2019-02-08T17:43:56.399Z,97872.12
2019-02-08T17:46:25.894Z,97877.58
2019-02-08T17:48:55.358Z,97882.11
2019-02-08T17:51:24.900Z,97885.33
2019-02-08T17:53:54.375Z,97878.30
2019-02-08T17:56:23.844Z,97877.21
2019-02-08T17:58:53.363Z,97883.11
2019-02-08T18:01:22.817Z,97878.38
2019-02-08T18:03:52.394Z,97875.97
2019-02-08T18:06:21.886Z,97875.05
2019-02-08T18:08:51.368Z,97882.49
2019-02-08T18:11:20.845Z,97877.80
2019-02-08T18:13:50.429Z,97870.71
2019-02-08T18:16:19.906Z,97865.47
2019-02-08T18:18:49.495Z,97862.45
2019-02-08T18:21:18.992Z,97860.31
2019-02-08T18:23:48.598Z,97867.41
2019-02-08T18:26:18.233Z,97860.64
2019-02-08T18:28:47.908Z,97858.26
2019-02-08T18:31:17.387Z,97856.42
2019-02-08T18:33:46.913Z,97859.33
2019-02-08T18:36:16.463Z,97869.31
2019-02-08T18:38:45.927Z,97868.30
2019-02-08T18:41:15.411Z,97866.59
2019-02-08T18:43:44.926Z,97859.02
2019-02-08T18:46:17.122Z,97861.37
2019-02-08T18:48:46.605Z,97856.20
2019-02-08T18:51:16.218Z,97860.38
2019-02-08T18:53:45.708Z,97854.69
2019-02-08T18:56:15.187Z,97860.25
2019-02-08T18:58:44.689Z,97859.35
2019-02-08T19:01:14.167Z,97857.90
2019-02-08T19:03:43.720Z,97855.59
2019-02-08T19:06:13.240Z,97854.81
2019-02-08T19:08:42.713Z,97853.22
2019-02-08T19:11:12.311Z,97849.58
2019-02-08T19:13:41.913Z,97853.71
2019-02-08T19:16:11.369Z,97858.87
2019-02-08T19:18:40.831Z,97857.81
2019-02-08T19:21:10.479Z,97852.28
2019-02-08T19:23:40.105Z,97854.42
2019-02-08T19:26:09.529Z,97853.42
2019-02-08T19:28:39.032Z,97849.89
2019-02-08T19:31:08.678Z,97846.86
2019-02-08T19:33:38.167Z,97841.03
2019-02-08T19:36:07.654Z,97848.38
2019-02-08T19:38:37.165Z,97847.02
2019-02-08T19:41:06.651Z,97850.09
2019-02-08T19:43:36.251Z,97853.47
2019-02-08T19:46:05.747Z,97852.88
2019-02-08T19:48:35.206Z,97848.48
2019-02-08T19:51:04.694Z,97837.87
2019-02-08T19:53:34.191Z,97838.22
2019-02-08T19:56:03.710Z,97837.80
2019-02-08T19:58:34.636Z,97829.22
2019-02-08T20:01:04.440Z,97825.13
2019-02-08T20:03:33.916Z,97824.73
2019-02-08T20:06:03.379Z,97822.45
2019-02-08T20:08:32.828Z,97819.22
2019-02-08T20:11:02.308Z,97822.79
2019-02-08T20:13:31.795Z,97818.00
2019-02-08T20:16:01.366Z,97812.66
2019-02-08T20:18:30.847Z,97817.30
2019-02-08T20:21:00.427Z,97820.09
2019-02-08T20:23:29.968Z,97811.25
2019-02-08T20:25:59.437Z,97812.77
2019-02-08T20:28:28.939Z,97817.23
2019-02-08T20:30:58.497Z,97809.82
2019-02-08T20:33:28.129Z,97809.55
2019-02-08T20:35:57.636Z,97802.12
2019-02-08T20:38:27.177Z,97809.62
2019-02-08T20:40:56.683Z,97811.10
2019-02-08T20:43:26.178Z,97805.66
2019-02-08T20:45:55.699Z,97808.29
2019-02-08T20:48:25.548Z,97812.01
2019-02-08T20:50:54.994Z,97813.11
2019-02-08T20:53:24.496Z,97810.40
2019-02-08T20:55:53.997Z,97815.31
2019-02-08T20:58:23.463Z,97817.82
2019-02-08T21:00:53.273Z,97818.88
2019-02-08T21:03:22.736Z,97811.25
2019-02-08T21:05:52.203Z,97814.37
2019-02-08T21:08:21.813Z,97808.94
2019-02-08T21:10:51.298Z,97814.41
2019-02-08T21:13:20.977Z,97818.86
2019-02-08T21:15:50.451Z,97818.20
2019-02-08T21:18:19.937Z,97819.48
2019-02-08T21:20:49.442Z,97816.23
2019-02-08T21:23:18.935Z,97817.71
2019-02-08T21:25:51.895Z,97809.05
2019-02-08T21:28:19.647Z,97809.83
2019-02-08T21:30:49.118Z,97811.00
2019-02-08T21:33:18.600Z,97806.70
2019-02-08T21:35:49.529Z,97798.03
2019-02-08T21:38:19.261Z,97792.30
2019-02-08T21:40:48.771Z,97792.91
2019-02-08T21:43:18.369Z,97792.80
2019-02-08T21:45:47.845Z,97784.98
2019-02-08T21:48:17.339Z,97779.69
2019-02-08T21:50:46.858Z,97781.77
2019-02-08T21:53:16.325Z,97782.25
2019-02-08T21:56:05.190Z,97780.00
2019-02-08T21:58:34.667Z,97776.81
2019-02-08T22:01:04.392Z,97775.19
2019-02-08T22:03:33.897Z,97775.98
2019-02-08T22:06:03.399Z,97772.45
2019-02-08T22:08:32.870Z,97770.09
2019-02-08T22:11:02.391Z,97773.95
2019-02-08T22:13:31.866Z,97771.41
2019-02-08T22:16:01.440Z,97768.09
2019-02-08T22:18:31.208Z,97761.64
2019-02-08T22:21:00.922Z,97768.39
2019-02-08T22:23:30.410Z,97768.78
2019-02-08T22:26:00.052Z,97761.64
2019-02-08T22:28:29.581Z,97761.69
2019-02-08T22:30:59.061Z,97753.19
2019-02-08T22:33:28.573Z,97753.33
2019-02-08T22:35:58.256Z,97755.80
2019-02-08T22:38:27.738Z,97750.27
2019-02-08T22:40:57.395Z,97755.56
2019-02-08T22:43:26.900Z,97755.03
2019-02-08T22:45:56.594Z,97751.00
2019-02-08T22:48:26.120Z,97746.78
2019-02-08T22:50:55.645Z,97740.27
2019-02-08T22:53:25.141Z,97738.23
2019-02-08T22:55:54.646Z,97733.48
2019-02-08T22:58:24.128Z,97726.71
2019-02-08T23:00:58.617Z,97729.92
2019-02-08T23:03:28.074Z,97732.35
2019-02-08T23:05:57.573Z,97724.44
2019-02-08T23:08:27.149Z,97721.16
2019-02-08T23:10:56.765Z,97724.73
2019-02-08T23:13:26.244Z,97723.38
2019-02-08T23:15:55.753Z,97715.95
2019-02-08T23:18:25.236Z,97724.25
2019-02-08T23:20:54.720Z,97721.25
2019-02-08T23:23:24.229Z,97710.50
2019-02-08T23:25:53.717Z,97714.98
2019-02-08T23:28:23.199Z,97712.72
2019-02-08T23:30:52.703Z,97710.84
2019-02-08T23:33:22.225Z,97711.60
2019-02-08T23:35:51.712Z,97719.79
2019-02-08T23:38:21.178Z,97719.69
2019-02-08T23:40:50.705Z,97718.21
2019-02-08T23:43:20.203Z,97718.30
2019-02-08T23:45:49.668Z,97712.28
2019-02-08T23:48:19.179Z,97705.78
2019-02-08T23:50:48.763Z,97703.17
2019-02-08T23:53:18.241Z,97702.73
2019-02-08T23:55:47.754Z,97699.09
2019-02-08T23:58:17.228Z,97699.05
